sensor_id;sensor_type;location;lat;lon;timestamp;pressure;altitude;pressure_sealevel;temperature;humidity
12358;BME280;6243;51.244;6.774;2022-08-21T00:01:06;153437.66;;;23.62;73.03
12358;BME280;6243;51.244;6.774;2022-08-21T00:03:35;153427.38;;;23.58;72.49
12358;BME280;6243;51.244;6.774;2022-08-21T00:06:01;153447.91;;;23.66;71.64
12358;BME280;6243;51.244;6.774;2022-08-21T00:08:27;153480.03;;;23.79;71.51
12358;BME280;6243;51.244;6.774;2022-08-21T00:10:52;153442.78;;;23.64;72.19
12358;BME280;6243;51.244;6.774;2022-08-21T00:13:19;153477.44;;;23.78;71.61
12358;BME280;6243;51.244;6.774;2022-08-21T00:15:45;153513.41;;;23.92;70.74
12358;BME280;6243;51.244;6.774;2022-08-21T00:18:11;153490.28;;;23.83;70.54
12358;BME280;6243;51.244;6.774;2022-08-21T00:20:38;153451.78;;;23.68;71.56
12358;BME280;6243;51.244;6.774;2022-08-21T00:23:03;153436.34;;;23.62;71.75
12358;BME280;6243;51.244;6.774;2022-08-21T00:25:30;153387.59;;;23.43;73.76
12358;BME280;6243;51.244;6.774;2022-08-21T00:27:56;153383.72;;;23.41;73.66
12358;BME280;6243;51.244;6.774;2022-08-21T00:30:25;153376.06;;;23.38;74.65
12358;BME280;6243;51.244;6.774;2022-08-21T00:32:52;153352.91;;;23.29;74.98
12358;BME280;6243;51.244;6.774;2022-08-21T00:35:22;153377.34;;;23.39;74.27
12358;BME280;6243;51.244;6.774;2022-08-21T00:37:48;153373.47;;;23.37;75.16
12358;BME280;6243;51.244;6.774;2022-08-21T00:40:17;153363.16;;;23.33;75.46
12358;BME280;6243;51.244;6.774;2022-08-21T00:42:43;153374.75;;;23.38;75.89
12358;BME280;6243;51.244;6.774;2022-08-21T00:45:10;153370.91;;;23.36;76.02
12358;BME280;6243;51.244;6.774;2022-08-21T00:47:37;153433.81;;;23.61;75.10
12358;BME280;6243;51.244;6.774;2022-08-21T00:50:05;153438.94;;;23.63;73.92
12358;BME280;6243;51.244;6.774;2022-08-21T00:52:33;153391.44;;;23.44;74.79
12358;BME280;6243;51.244;6.774;2022-08-21T00:55:01;153392.72;;;23.45;75.63
12358;BME280;6243;51.244;6.774;2022-08-21T00:57:29;153363.16;;;23.33;75.75
12358;BME280;6243;51.244;6.774;2022-08-21T00:59:58;153324.66;;;23.18;76.54
12358;BME280;6243;51.244;6.774;2022-08-21T01:02:25;153338.75;;;23.23;76.77
12358;BME280;6243;51.244;6.774;2022-08-21T01:04:52;153306.69;;;23.11;78.07
12358;BME280;6243;51.244;6.774;2022-08-21T01:07:18;153331.09;;;23.20;76.39
12358;BME280;6243;51.244;6.774;2022-08-21T01:09:45;153313.13;;;23.13;76.86
12358;BME280;6243;51.244;6.774;2022-08-21T01:12:11;153275.88;;;22.99;77.28
12358;BME280;6243;51.244;6.774;2022-08-21T01:14:37;153293.84;;;23.06;76.30
12358;BME280;6243;51.244;6.774;2022-08-21T01:17:04;153227.09;;;22.80;77.45
12358;BME280;6243;51.244;6.774;2022-08-21T01:19:30;153188.63;;;22.65;79.04
12358;BME280;6243;51.244;6.774;2022-08-21T01:21:57;153192.47;;;22.66;78.67
12358;BME280;6243;51.244;6.774;2022-08-21T01:24:23;153180.91;;;22.62;79.94
12358;BME280;6243;51.244;6.774;2022-08-21T01:26:49;153188.63;;;22.65;79.99
12358;BME280;6243;51.244;6.774;2022-08-21T01:29:20;153161.66;;;22.54;80.65
12358;BME280;6243;51.244;6.774;2022-08-21T01:31:48;153200.19;;;22.69;80.39
12358;BME280;6243;51.244;6.774;2022-08-21T01:34:14;153241.22;;;22.85;78.69
12358;BME280;6243;51.244;6.774;2022-08-21T01:36:40;153214.31;;;22.75;79.23
12358;BME280;6243;51.244;6.774;2022-08-21T01:39:07;153141.09;;;22.46;82.14
12358;BME280;6243;51.244;6.774;2022-08-21T01:41:32;153128.25;;;22.41;82.79
12358;BME280;6243;51.244;6.774;2022-08-21T01:43:58;153114.19;;;22.35;82.58
12358;BME280;6243;51.244;6.774;2022-08-21T01:46:23;153109.06;;;22.33;82.39
12358;BME280;6243;51.244;6.774;2022-08-21T01:48:49;153123.13;;;22.39;83.20
12358;BME280;6243;51.244;6.774;2022-08-21T01:51:14;153142.41;;;22.46;82.85
12358;BME280;6243;51.244;6.774;2022-08-21T01:53:40;153120.59;;;22.38;82.99
12358;BME280;6243;51.244;6.774;2022-08-21T01:56:10;153116.72;;;22.36;82.32
12358;BME280;6243;51.244;6.774;2022-08-21T01:58:36;153093.63;;;22.27;83.39
12358;BME280;6243;51.244;6.774;2022-08-21T02:01:01;153021.84;;;21.99;87.93
12358;BME280;6243;51.244;6.774;2022-08-21T02:03:27;153061.59;;;22.15;86.34
12358;BME280;6243;51.244;6.774;2022-08-21T02:05:53;153096.22;;;22.28;84.31
12358;BME280;6243;51.244;6.774;2022-08-21T02:08:19;153076.97;;;22.21;85.48
12358;BME280;6243;51.244;6.774;2022-08-21T02:10:44;153105.19;;;22.32;84.09
12358;BME280;6243;51.244;6.774;2022-08-21T02:13:11;153030.81;;;22.03;87.49
12358;BME280;6243;51.244;6.774;2022-08-21T02:15:36;153044.94;;;22.08;85.31
12358;BME280;6243;51.244;6.774;2022-08-21T02:18:04;153028.25;;;22.02;87.13
12358;BME280;6243;51.244;6.774;2022-08-21T02:20:33;153062.88;;;22.15;85.92
12358;BME280;6243;51.244;6.774;2022-08-21T02:22:59;153041.06;;;22.07;88.05
12358;BME280;6243;51.244;6.774;2022-08-21T02:25:25;153075.69;;;22.20;84.86
12358;BME280;6243;51.244;6.774;2022-08-21T02:27:50;153059.00;;;22.14;85.10
12358;BME280;6243;51.244;6.774;2022-08-21T02:30:23;153068.00;;;22.17;86.43
12358;BME280;6243;51.244;6.774;2022-08-21T02:32:50;153078.25;;;22.21;85.57
12358;BME280;6243;51.244;6.774;2022-08-21T02:35:16;153055.19;;;22.12;87.36
12358;BME280;6243;51.244;6.774;2022-08-21T02:37:47;153096.22;;;22.28;85.15
12358;BME280;6243;51.244;6.774;2022-08-21T02:40:14;153080.84;;;22.22;86.51
12358;BME280;6243;51.244;6.774;2022-08-21T02:42:41;153003.88;;;21.92;90.76
12358;BME280;6243;51.244;6.774;2022-08-21T02:45:07;153071.84;;;22.19;86.59
12358;BME280;6243;51.244;6.774;2022-08-21T02:47:34;153088.50;;;22.25;86.47
12358;BME280;6243;51.244;6.774;2022-08-21T02:50:00;153020.56;;;21.99;88.67
12358;BME280;6243;51.244;6.774;2022-08-21T02:52:25;153100.06;;;22.30;84.74
12358;BME280;6243;51.244;6.774;2022-08-21T02:54:51;153069.31;;;22.18;85.51
12358;BME280;6243;51.244;6.774;2022-08-21T02:57:16;153038.50;;;22.06;87.02
12358;BME280;6243;51.244;6.774;2022-08-21T02:59:42;153062.88;;;22.15;86.29
12358;BME280;6243;51.244;6.774;2022-08-21T03:02:07;153102.63;;;22.31;86.03
12358;BME280;6243;51.244;6.774;2022-08-21T03:04:34;153151.34;;;22.50;83.24
12358;BME280;6243;51.244;6.774;2022-08-21T03:06:59;153012.84;;;21.96;88.43
12358;BME280;6243;51.244;6.774;2022-08-21T03:09:25;153080.84;;;22.22;84.38
12358;BME280;6243;51.244;6.774;2022-08-21T03:11:50;153089.81;;;22.26;82.59
12358;BME280;6243;51.244;6.774;2022-08-21T03:14:16;153064.13;;;22.16;84.05
12358;BME280;6243;51.244;6.774;2022-08-21T03:16:42;153044.94;;;22.08;86.81
12358;BME280;6243;51.244;6.774;2022-08-21T03:19:07;153057.75;;;22.13;86.08
12358;BME280;6243;51.244;6.774;2022-08-21T03:21:34;153076.97;;;22.21;84.61
12358;BME280;6243;51.244;6.774;2022-08-21T03:23:59;153023.09;;;22.00;85.69
12358;BME280;6243;51.244;6.774;2022-08-21T03:26:25;152996.19;;;21.89;87.18
12358;BME280;6243;51.244;6.774;2022-08-21T03:28:50;152966.63;;;21.77;89.42
12358;BME280;6243;51.244;6.774;2022-08-21T03:31:16;152985.94;;;21.85;89.18
12358;BME280;6243;51.244;6.774;2022-08-21T03:33:42;153073.13;;;22.19;84.87
12358;BME280;6243;51.244;6.774;2022-08-21T03:36:08;153121.84;;;22.38;82.33
12358;BME280;6243;51.244;6.774;2022-08-21T03:38:37;153029.50;;;22.02;85.61
12358;BME280;6243;51.244;6.774;2022-08-21T03:41:04;153068.00;;;22.17;83.86
12358;BME280;6243;51.244;6.774;2022-08-21T03:43:30;153070.56;;;22.18;84.07
12358;BME280;6243;51.244;6.774;2022-08-21T03:45:55;153034.63;;;22.04;85.65
12358;BME280;6243;51.244;6.774;2022-08-21T03:48:21;153053.88;;;22.12;84.50
12358;BME280;6243;51.244;6.774;2022-08-21T03:50:47;153033.38;;;22.04;84.45
12358;BME280;6243;51.244;6.774;2022-08-21T03:53:14;152992.34;;;21.87;85.97
12358;BME280;6243;51.244;6.774;2022-08-21T03:55:42;152858.97;;;21.35;90.84
12358;BME280;6243;51.244;6.774;2022-08-21T03:58:07;152961.50;;;21.75;86.14
12358;BME280;6243;51.244;6.774;2022-08-21T04:00:33;152973.06;;;21.80;85.97
12358;BME280;6243;51.244;6.774;2022-08-21T04:02:59;153037.22;;;22.05;83.58
12358;BME280;6243;51.244;6.774;2022-08-21T04:05:24;152989.75;;;21.86;84.77
12358;BME280;6243;51.244;6.774;2022-08-21T04:07:50;152923.06;;;21.60;86.30
12358;BME280;6243;51.244;6.774;2022-08-21T04:10:15;152891.00;;;21.48;88.71
12358;BME280;6243;51.244;6.774;2022-08-21T04:12:42;152930.72;;;21.63;87.53
12358;BME280;6243;51.244;6.774;2022-08-21T04:15:08;152843.56;;;21.29;91.54
12358;BME280;6243;51.244;6.774;2022-08-21T04:17:34;152976.88;;;21.81;86.47
12358;BME280;6243;51.244;6.774;2022-08-21T04:19:59;152929.50;;;21.63;87.82
12358;BME280;6243;51.244;6.774;2022-08-21T04:22:25;152907.66;;;21.54;87.82
12358;BME280;6243;51.244;6.774;2022-08-21T04:24:51;152966.63;;;21.77;85.96
12358;BME280;6243;51.244;6.774;2022-08-21T04:27:16;152961.50;;;21.75;85.95
12358;BME280;6243;51.244;6.774;2022-08-21T04:29:43;152906.41;;;21.54;87.91
12358;BME280;6243;51.244;6.774;2022-08-21T04:32:08;152900.00;;;21.51;87.90
12358;BME280;6243;51.244;6.774;2022-08-21T04:34:34;152861.50;;;21.36;88.66
12358;BME280;6243;51.244;6.774;2022-08-21T04:36:59;152920.47;;;21.59;86.74
12358;BME280;6243;51.244;6.774;2022-08-21T04:39:25;152910.25;;;21.55;86.32
12358;BME280;6243;51.244;6.774;2022-08-21T04:41:50;152902.53;;;21.52;87.33
12358;BME280;6243;51.244;6.774;2022-08-21T04:44:16;152874.34;;;21.41;88.89
12358;BME280;6243;51.244;6.774;2022-08-21T04:46:42;152879.47;;;21.43;87.93
12358;BME280;6243;51.244;6.774;2022-08-21T04:49:08;152865.38;;;21.38;88.47
12358;BME280;6243;51.244;6.774;2022-08-21T04:51:35;152917.94;;;21.58;86.65
12358;BME280;6243;51.244;6.774;2022-08-21T04:54:08;152892.28;;;21.48;88.34
12358;BME280;6243;51.244;6.774;2022-08-21T04:56:37;152911.53;;;21.56;87.40
12358;BME280;6243;51.244;6.774;2022-08-21T04:59:11;152946.16;;;21.69;86.26
12358;BME280;6243;51.244;6.774;2022-08-21T05:01:39;152816.66;;;21.18;90.25
12358;BME280;6243;51.244;6.774;2022-08-21T05:04:08;152923.06;;;21.60;87.27
12358;BME280;6243;51.244;6.774;2022-08-21T05:06:37;152892.28;;;21.48;86.62
12358;BME280;6243;51.244;6.774;2022-08-21T05:09:04;152980.75;;;21.83;83.45
12358;BME280;6243;51.244;6.774;2022-08-21T05:11:30;152869.22;;;21.39;89.10
12358;BME280;6243;51.244;6.774;2022-08-21T05:13:56;152900.00;;;21.51;86.17
12358;BME280;6243;51.244;6.774;2022-08-21T05:16:21;152900.00;;;21.51;88.36
12358;BME280;6243;51.244;6.774;2022-08-21T05:18:47;152911.53;;;21.56;86.46
12358;BME280;6243;51.244;6.774;2022-08-21T05:21:14;152882.03;;;21.44;87.77
12358;BME280;6243;51.244;6.774;2022-08-21T05:23:39;152937.16;;;21.66;85.78
12358;BME280;6243;51.244;6.774;2022-08-21T05:26:05;152919.19;;;21.59;87.35
12358;BME280;6243;51.244;6.774;2022-08-21T05:28:30;152829.50;;;21.24;92.43
12358;BME280;6243;51.244;6.774;2022-08-21T05:30:56;152938.44;;;21.66;87.51
12358;BME280;6243;51.244;6.774;2022-08-21T05:33:22;153042.34;;;22.07;83.66
12358;BME280;6243;51.244;6.774;2022-08-21T05:35:49;152998.78;;;21.90;83.48
12358;BME280;6243;51.244;6.774;2022-08-21T05:38:16;153100.06;;;22.30;81.71
12358;BME280;6243;51.244;6.774;2022-08-21T05:40:42;153064.13;;;22.16;80.50
12358;BME280;6243;51.244;6.774;2022-08-21T05:43:07;153015.44;;;21.97;82.48
12358;BME280;6243;51.244;6.774;2022-08-21T05:45:33;153153.94;;;22.51;77.68
12358;BME280;6243;51.244;6.774;2022-08-21T05:48:05;152892.28;;;21.48;80.83
12358;BME280;6243;51.244;6.774;2022-08-21T05:50:31;153094.94;;;22.28;76.68
12358;BME280;6243;51.244;6.774;2022-08-21T05:52:56;153056.47;;;22.13;77.30
12358;BME280;6243;51.244;6.774;2022-08-21T05:55:23;153071.84;;;22.19;73.27
12358;BME280;6243;51.244;6.774;2022-08-21T05:57:48;153164.19;;;22.55;72.64
12358;BME280;6243;51.244;6.774;2022-08-21T06:00:15;153146.22;;;22.48;72.98
12358;BME280;6243;51.244;6.774;2022-08-21T06:02:40;153282.31;;;23.01;69.70
12358;BME280;6243;51.244;6.774;2022-08-21T06:05:06;153242.53;;;22.86;68.96
12358;BME280;6243;51.244;6.774;2022-08-21T06:07:32;153111.59;;;22.34;69.39
12358;BME280;6243;51.244;6.774;2022-08-21T06:09:58;153111.59;;;22.34;69.93
12358;BME280;6243;51.244;6.774;2022-08-21T06:12:25;153205.31;;;22.71;68.77
12358;BME280;6243;51.244;6.774;2022-08-21T06:14:50;153243.81;;;22.86;66.54
12358;BME280;6243;51.244;6.774;2022-08-21T06:17:16;153269.47;;;22.96;67.42
12358;BME280;6243;51.244;6.774;2022-08-21T06:19:41;153238.66;;;22.84;66.14
12358;BME280;6243;51.244;6.774;2022-08-21T06:22:07;153444.06;;;23.65;64.18
12358;BME280;6243;51.244;6.774;2022-08-21T06:24:32;153468.47;;;23.74;63.33
12358;BME280;6243;51.244;6.774;2022-08-21T06:26:58;153409.41;;;23.51;61.51
12358;BME280;6243;51.244;6.774;2022-08-21T06:29:30;153562.28;;;24.11;61.31
12358;BME280;6243;51.244;6.774;2022-08-21T06:31:55;153639.34;;;24.41;60.13
12358;BME280;6243;51.244;6.774;2022-08-21T06:34:21;153636.75;;;24.40;59.97
12358;BME280;6243;51.244;6.774;2022-08-21T06:36:46;153441.53;;;23.64;59.86
12358;BME280;6243;51.244;6.774;2022-08-21T06:39:12;153510.88;;;23.91;59.10
12358;BME280;6243;51.244;6.774;2022-08-21T06:41:37;153600.78;;;24.26;59.19
12358;BME280;6243;51.244;6.774;2022-08-21T06:44:03;153666.31;;;24.52;58.41
12358;BME280;6243;51.244;6.774;2022-08-21T06:46:30;153734.44;;;24.79;57.02
12358;BME280;6243;51.244;6.774;2022-08-21T06:48:56;153571.25;;;24.15;58.60
12358;BME280;6243;51.244;6.774;2022-08-21T06:51:22;153569.94;;;24.14;58.54
12358;BME280;6243;51.244;6.774;2022-08-21T06:53:48;153798.69;;;25.04;56.14
12358;BME280;6243;51.244;6.774;2022-08-21T06:56:14;153861.66;;;25.28;55.68
12358;BME280;6243;51.244;6.774;2022-08-21T06:58:40;153891.22;;;25.40;54.41
12358;BME280;6243;51.244;6.774;2022-08-21T07:01:05;153990.28;;;25.79;53.22
12358;BME280;6243;51.244;6.774;2022-08-21T07:03:34;154055.88;;;26.04;53.47
12358;BME280;6243;51.244;6.774;2022-08-21T07:06:00;154019.84;;;25.90;53.65
12358;BME280;6243;51.244;6.774;2022-08-21T07:08:26;154089.34;;;26.18;52.70
12358;BME280;6243;51.244;6.774;2022-08-21T07:10:53;154152.34;;;26.42;51.73
12358;BME280;6243;51.244;6.774;2022-08-21T07:13:20;154201.25;;;26.61;51.38
12358;BME280;6243;51.244;6.774;2022-08-21T07:15:45;154153.66;;;26.43;50.77
12358;BME280;6243;51.244;6.774;2022-08-21T07:18:11;154198.72;;;26.60;51.11
12358;BME280;6243;51.244;6.774;2022-08-21T07:20:39;154138.22;;;26.37;50.65
12358;BME280;6243;51.244;6.774;2022-08-21T07:23:06;154194.81;;;26.59;50.01
12358;BME280;6243;51.244;6.774;2022-08-21T07:25:33;154336.41;;;27.14;49.97
12358;BME280;6243;51.244;6.774;2022-08-21T07:27:59;154380.16;;;27.31;49.45
12358;BME280;6243;51.244;6.774;2022-08-21T07:30:25;154130.50;;;26.34;50.96
12358;BME280;6243;51.244;6.774;2022-08-21T07:32:51;154308.13;;;27.03;49.18
12358;BME280;6243;51.244;6.774;2022-08-21T07:35:17;154396.97;;;27.38;48.93
12358;BME280;6243;51.244;6.774;2022-08-21T07:37:44;154179.41;;;26.53;49.18
12358;BME280;6243;51.244;6.774;2022-08-21T07:40:10;154144.66;;;26.39;49.46
12358;BME280;6243;51.244;6.774;2022-08-21T07:42:39;154314.56;;;27.06;49.80
12358;BME280;6243;51.244;6.774;2022-08-21T07:45:06;154421.41;;;27.48;48.53
12358;BME280;6243;51.244;6.774;2022-08-21T07:47:32;154467.75;;;27.66;47.44
12358;BME280;6243;51.244;6.774;2022-08-21T07:49:57;154610.75;;;28.22;46.55
12358;BME280;6243;51.244;6.774;2022-08-21T07:52:23;154572.13;;;28.06;46.56
12358;BME280;6243;51.244;6.774;2022-08-21T07:54:50;154722.88;;;28.65;45.86
12358;BME280;6243;51.244;6.774;2022-08-21T07:57:15;154793.75;;;28.93;45.42
12358;BME280;6243;51.244;6.774;2022-08-21T07:59:41;154773.09;;;28.85;44.14
12358;BME280;6243;51.244;6.774;2022-08-21T08:02:06;154883.97;;;29.28;43.94
12358;BME280;6243;51.244;6.774;2022-08-21T08:04:32;154938.09;;;29.49;43.49
12358;BME280;6243;51.244;6.774;2022-08-21T08:06:57;154971.59;;;29.63;42.30
12358;BME280;6243;51.244;6.774;2022-08-21T08:09:23;155077.38;;;30.04;41.83
12358;BME280;6243;51.244;6.774;2022-08-21T08:11:49;155032.25;;;29.86;42.08
12358;BME280;6243;51.244;6.774;2022-08-21T08:14:15;155070.94;;;30.01;42.77
12358;BME280;6243;51.244;6.774;2022-08-21T08:16:40;155141.84;;;30.29;42.08
12358;BME280;6243;51.244;6.774;2022-08-21T08:19:06;155190.94;;;30.48;41.26
12358;BME280;6243;51.244;6.774;2022-08-21T08:21:32;155205.09;;;30.54;40.05
12358;BME280;6243;51.244;6.774;2022-08-21T08:23:57;155251.53;;;30.72;40.46
12358;BME280;6243;51.244;6.774;2022-08-21T08:26:23;155316.09;;;30.97;39.88
12358;BME280;6243;51.244;6.774;2022-08-21T08:28:50;155320.00;;;30.99;39.29
12358;BME280;6243;51.244;6.774;2022-08-21T08:31:15;155104.44;;;30.14;40.15
12358;BME280;6243;51.244;6.774;2022-08-21T08:33:42;155291.56;;;30.88;39.65
12358;BME280;6243;51.244;6.774;2022-08-21T08:36:13;155366.44;;;31.17;39.83
12358;BME280;6243;51.244;6.774;2022-08-21T08:38:39;155308.38;;;30.94;38.71
12358;BME280;6243;51.244;6.774;2022-08-21T08:41:10;155119.94;;;30.21;39.82
12358;BME280;6243;51.244;6.774;2022-08-21T08:43:36;155212.84;;;30.57;39.60
12358;BME280;6243;51.244;6.774;2022-08-21T08:46:06;155376.75;;;31.21;39.02
12358;BME280;6243;51.244;6.774;2022-08-21T08:48:45;155451.63;;;31.50;38.81
12358;BME280;6243;51.244;6.774;2022-08-21T08:51:15;155558.78;;;31.92;38.36
12358;BME280;6243;51.244;6.774;2022-08-21T08:53:49;155681.50;;;32.40;38.31
12358;BME280;6243;51.244;6.774;2022-08-21T08:56:17;155685.34;;;32.41;37.18
12358;BME280;6243;51.244;6.774;2022-08-21T08:58:45;155761.59;;;32.71;37.60
12358;BME280;6243;51.244;6.774;2022-08-21T09:01:16;155703.44;;;32.48;35.97
12358;BME280;6243;51.244;6.774;2022-08-21T09:03:43;155769.34;;;32.74;36.26
12358;BME280;6243;51.244;6.774;2022-08-21T09:06:21;155837.84;;;33.01;35.63
12358;BME280;6243;51.244;6.774;2022-08-21T09:08:54;155607.84;;;32.11;36.31
12358;BME280;6243;51.244;6.774;2022-08-21T09:11:28;155813.25;;;32.91;36.50
12358;BME280;6243;51.244;6.774;2022-08-21T09:14:02;155905.06;;;33.27;35.97
12358;BME280;6243;51.244;6.774;2022-08-21T09:16:40;155681.50;;;32.40;35.17
12358;BME280;6243;51.244;6.774;2022-08-21T09:19:27;155716.41;;;32.53;36.01
12358;BME280;6243;51.244;6.774;2022-08-21T09:22:05;155893.41;;;33.22;34.49
12358;BME280;6243;51.244;6.774;2022-08-21T09:24:39;156044.66;;;33.81;34.92
12358;BME280;6243;51.244;6.774;2022-08-21T09:27:09;156104.16;;;34.04;35.23
12358;BME280;6243;51.244;6.774;2022-08-21T09:29:39;156158.41;;;34.25;34.17
12358;BME280;6243;51.244;6.774;2022-08-21T09:32:10;155875.34;;;33.15;34.04
12358;BME280;6243;51.244;6.774;2022-08-21T09:34:36;156074.38;;;33.93;34.53
12358;BME280;6243;51.244;6.774;2022-08-21T09:37:02;155819.72;;;32.93;34.35
12358;BME280;6243;51.244;6.774;2022-08-21T09:39:29;155970.97;;;33.52;34.79
12358;BME280;6243;51.244;6.774;2022-08-21T09:41:57;156186.84;;;34.37;33.43
12358;BME280;6243;51.244;6.774;2022-08-21T09:44:25;156259.31;;;34.65;33.10
12358;BME280;6243;51.244;6.774;2022-08-21T09:46:51;156411.97;;;35.24;33.03
12358;BME280;6243;51.244;6.774;2022-08-21T09:49:26;156497.41;;;35.57;32.13
12358;BME280;6243;51.244;6.774;2022-08-21T09:51:52;156427.50;;;35.30;32.37
12358;BME280;6243;51.244;6.774;2022-08-21T09:54:20;156462.41;;;35.44;31.67
12358;BME280;6243;51.244;6.774;2022-08-21T09:56:55;156335.63;;;34.94;31.15
12358;BME280;6243;51.244;6.774;2022-08-21T09:59:26;156437.88;;;35.34;32.11
12358;BME280;6243;51.244;6.774;2022-08-21T10:01:53;156356.41;;;35.03;31.98
12358;BME280;6243;51.244;6.774;2022-08-21T10:04:23;156369.28;;;35.08;32.35
12358;BME280;6243;51.244;6.774;2022-08-21T10:06:49;156223.06;;;34.51;32.16
12358;BME280;6243;51.244;6.774;2022-08-21T10:09:17;156411.97;;;35.24;31.21
12358;BME280;6243;51.244;6.774;2022-08-21T10:11:49;156450.78;;;35.39;31.72
12358;BME280;6243;51.244;6.774;2022-08-21T10:14:25;155955.41;;;33.46;32.64
12358;BME280;6243;51.244;6.774;2022-08-21T10:17:01;155907.59;;;33.28;33.33
12358;BME280;6243;51.244;6.774;2022-08-21T10:19:38;155929.56;;;33.36;33.17
12358;BME280;6243;51.244;6.774;2022-08-21T10:22:15;156193.31;;;34.39;33.04
12358;BME280;6243;51.244;6.774;2022-08-21T10:24:50;156320.13;;;34.88;32.27
12358;BME280;6243;51.244;6.774;2022-08-21T10:27:24;156345.97;;;34.98;31.57
12358;BME280;6243;51.244;6.774;2022-08-21T10:29:58;156352.47;;;35.01;31.06
12358;BME280;6243;51.244;6.774;2022-08-21T10:32:36;155912.78;;;33.30;33.08
12358;BME280;6243;51.244;6.774;2022-08-21T10:35:09;156282.59;;;34.74;31.45
12358;BME280;6243;51.244;6.774;2022-08-21T10:37:47;156450.78;;;35.39;31.24
12358;BME280;6243;51.244;6.774;2022-08-21T10:40:22;156518.13;;;35.66;30.86
12358;BME280;6243;51.244;6.774;2022-08-21T10:43:10;156582.81;;;35.91;30.18
12358;BME280;6243;51.244;6.774;2022-08-21T10:45:51;155986.50;;;33.58;32.48
12358;BME280;6243;51.244;6.774;2022-08-21T10:48:24;155788.69;;;32.81;33.66
12358;BME280;6243;51.244;6.774;2022-08-21T10:50:55;156153.25;;;34.23;32.76
12358;BME280;6243;51.244;6.774;2022-08-21T10:53:45;156361.56;;;35.05;31.65
12358;BME280;6243;51.244;6.774;2022-08-21T10:56:16;156525.91;;;35.69;31.87
12358;BME280;6243;51.244;6.774;2022-08-21T10:58:48;156349.88;;;35.00;30.57
12358;BME280;6243;51.244;6.774;2022-08-21T11:01:18;156419.75;;;35.27;30.43
12358;BME280;6243;51.244;6.774;2022-08-21T11:03:50;156159.72;;;34.26;31.93
12358;BME280;6243;51.244;6.774;2022-08-21T11:06:21;156268.41;;;34.68;31.70
12358;BME280;6243;51.244;6.774;2022-08-21T11:08:51;156446.91;;;35.38;31.33
12358;BME280;6243;51.244;6.774;2022-08-21T11:11:21;156564.69;;;35.84;31.09
12358;BME280;6243;51.244;6.774;2022-08-21T11:13:52;156641.09;;;36.13;30.06
12358;BME280;6243;51.244;6.774;2022-08-21T11:16:23;156471.50;;;35.47;29.87
12358;BME280;6243;51.244;6.774;2022-08-21T11:18:55;156096.34;;;34.01;31.66
12358;BME280;6243;51.244;6.774;2022-08-21T11:21:37;156093.72;;;34.00;31.87
12358;BME280;6243;51.244;6.774;2022-08-21T11:24:15;155771.91;;;32.75;33.71
12358;BME280;6243;51.244;6.774;2022-08-21T11:26:46;156157.13;;;34.25;31.63
12358;BME280;6243;51.244;6.774;2022-08-21T11:29:16;156324.00;;;34.90;31.67
12358;BME280;6243;51.244;6.774;2022-08-21T11:31:55;156097.66;;;34.02;32.09
12358;BME280;6243;51.244;6.774;2022-08-21T11:34:36;156479.31;;;35.50;30.34
12358;BME280;6243;51.244;6.774;2022-08-21T11:37:12;156471.50;;;35.47;29.63
12358;BME280;6243;51.244;6.774;2022-08-21T11:39:46;156669.56;;;36.24;29.76
12358;BME280;6243;51.244;6.774;2022-08-21T11:42:21;156529.75;;;35.70;29.80
12358;BME280;6243;51.244;6.774;2022-08-21T11:44:54;156246.38;;;34.60;31.01
12358;BME280;6243;51.244;6.774;2022-08-21T11:47:28;156329.16;;;34.92;30.33
12358;BME280;6243;51.244;6.774;2022-08-21T11:50:09;156415.84;;;35.26;30.17
12358;BME280;6243;51.244;6.774;2022-08-21T11:52:41;156613.94;;;36.03;30.37
12358;BME280;6243;51.244;6.774;2022-08-21T11:55:12;156633.31;;;36.10;29.77
12358;BME280;6243;51.244;6.774;2022-08-21T11:57:51;156699.34;;;36.36;29.53
12358;BME280;6243;51.244;6.774;2022-08-21T12:00:22;156831.44;;;36.87;28.70
12358;BME280;6243;51.244;6.774;2022-08-21T12:02:51;156808.09;;;36.78;29.09
12358;BME280;6243;51.244;6.774;2022-08-21T12:05:28;156821.06;;;36.83;28.55
12358;BME280;6243;51.244;6.774;2022-08-21T12:08:09;156871.63;;;37.03;28.35
12358;BME280;6243;51.244;6.774;2022-08-21T12:10:38;156940.25;;;37.30;28.41
12358;BME280;6243;51.244;6.774;2022-08-21T12:13:10;157014.09;;;37.58;28.04
12358;BME280;6243;51.244;6.774;2022-08-21T12:15:36;157006.38;;;37.55;28.13
12358;BME280;6243;51.244;6.774;2022-08-21T12:18:03;156997.28;;;37.52;28.10
12358;BME280;6243;51.244;6.774;2022-08-21T12:20:39;156893.63;;;37.12;27.92
12358;BME280;6243;51.244;6.774;2022-08-21T12:23:18;156559.53;;;35.82;28.26
12358;BME280;6243;51.244;6.774;2022-08-21T12:25:59;156924.72;;;37.24;28.55
12358;BME280;6243;51.244;6.774;2022-08-21T12:28:26;157006.38;;;37.55;28.43
12358;BME280;6243;51.244;6.774;2022-08-21T12:30:52;156944.13;;;37.31;28.28
12358;BME280;6243;51.244;6.774;2022-08-21T12:33:23;156961.00;;;37.38;27.68
12358;BME280;6243;51.244;6.774;2022-08-21T12:35:50;157056.84;;;37.75;28.50
12358;BME280;6243;51.244;6.774;2022-08-21T12:38:20;157025.75;;;37.63;27.96
12358;BME280;6243;51.244;6.774;2022-08-21T12:40:50;156935.06;;;37.28;28.43
12358;BME280;6243;51.244;6.774;2022-08-21T12:43:20;156972.66;;;37.42;27.97
12358;BME280;6243;51.244;6.774;2022-08-21T12:45:50;156910.47;;;37.18;28.43
12358;BME280;6243;51.244;6.774;2022-08-21T12:48:20;156979.13;;;37.45;27.80
12358;BME280;6243;51.244;6.774;2022-08-21T12:50:50;156967.47;;;37.40;27.41
12358;BME280;6243;51.244;6.774;2022-08-21T12:53:25;156971.41;;;37.42;27.44
12358;BME280;6243;51.244;6.774;2022-08-21T12:55:53;156805.53;;;36.77;28.76
12358;BME280;6243;51.244;6.774;2022-08-21T12:58:19;156813.31;;;36.80;28.90
12358;BME280;6243;51.244;6.774;2022-08-21T13:00:49;156901.41;;;37.15;28.37
12358;BME280;6243;51.244;6.774;2022-08-21T13:03:15;156963.59;;;37.39;28.52
12358;BME280;6243;51.244;6.774;2022-08-21T13:05:41;156929.91;;;37.26;28.69